sensor_id;sensor_type;location;lat;lon;timestamp;pressure;altitude;pressure_sealevel;temperature;humidity
2397;BME280;1209;48.410;9.054;2022-07-06T00:01:34;96819.63;;;17.57;100.00
2397;BME280;1209;48.410;9.054;2022-07-06T00:04:01;96817.34;;;17.02;100.00
2397;BME280;1209;48.410;9.054;2022-07-06T00:06:27;96825.09;;;17.16;100.00
2397;BME280;1209;48.410;9.054;2022-07-06T00:08:52;96825.22;;;16.75;100.00
2397;BME280;1209;48.410;9.054;2022-07-06T00:11:17;96823.66;;;17.14;100.00
2397;BME280;1209;48.410;9.054;2022-07-06T00:13:43;96821.34;;;16.71;100.00
2397;BME280;1209;48.410;9.054;2022-07-06T00:16:08;96817.34;;;17.02;100.00
2397;BME280;1209;48.410;9.054;2022-07-06T00:18:34;96822.19;;;16.91;100.00
2397;BME280;1209;48.410;9.054;2022-07-06T00:20:59;96821.63;;;16.48;100.00
2397;BME280;1209;48.410;9.054;2022-07-06T00:23:24;96825.25;;;16.88;100.00
2397;BME280;1209;48.410;9.054;2022-07-06T00:25:50;96822.00;;;16.86;100.00
2397;BME280;1209;48.410;9.054;2022-07-06T00:28:16;96815.50;;;16.95;100.00
2397;BME280;1209;48.410;9.054;2022-07-06T00:30:42;96813.69;;;16.96;100.00
2397;BME280;1209;48.410;9.054;2022-07-06T00:33:08;96806.97;;;16.93;100.00
2397;BME280;1209;48.410;9.054;2022-07-06T00:35:33;96817.53;;;16.93;100.00
2397;BME280;1209;48.410;9.054;2022-07-06T00:38:00;96817.94;;;16.90;100.00
2397;BME280;1209;48.410;9.054;2022-07-06T00:40:25;96815.69;;;16.81;100.00
2397;BME280;1209;48.410;9.054;2022-07-06T00:42:51;96817.56;;;16.46;100.00
2397;BME280;1209;48.410;9.054;2022-07-06T00:45:17;96816.69;;;16.80;100.00
2397;BME280;1209;48.410;9.054;2022-07-06T00:47:43;96822.38;;;16.77;100.00
2397;BME280;1209;48.410;9.054;2022-07-06T00:50:11;96821.16;;;16.79;100.00
2397;BME280;1209;48.410;9.054;2022-07-06T00:52:45;96818.72;;;16.78;100.00
2397;BME280;1209;48.410;9.054;2022-07-06T00:55:12;96816.91;;;16.91;100.00
2397;BME280;1209;48.410;9.054;2022-07-06T00:57:38;96814.72;;;16.41;100.00
2397;BME280;1209;48.410;9.054;2022-07-06T01:00:05;96821.66;;;16.55;100.00
2397;BME280;1209;48.410;9.054;2022-07-06T01:02:31;96818.06;;;16.62;100.00
2397;BME280;1209;48.410;9.054;2022-07-06T01:04:57;96823.31;;;16.56;100.00
2397;BME280;1209;48.410;9.054;2022-07-06T01:07:23;96823.75;;;16.18;100.00
2397;BME280;1209;48.410;9.054;2022-07-06T01:09:49;96831.59;;;16.53;100.00
2397;BME280;1209;48.410;9.054;2022-07-06T01:12:15;96827.47;;;16.37;100.00
2397;BME280;1209;48.410;9.054;2022-07-06T01:14:41;96826.88;;;16.35;100.00
2397;BME280;1209;48.410;9.054;2022-07-06T01:17:07;96820.22;;;16.46;100.00
2397;BME280;1209;48.410;9.054;2022-07-06T01:19:33;96815.53;;;16.41;100.00
2397;BME280;1209;48.410;9.054;2022-07-06T01:21:58;96818.50;;;16.25;100.00
2397;BME280;1209;48.410;9.054;2022-07-06T01:24:25;96812.75;;;16.08;100.00
2397;BME280;1209;48.410;9.054;2022-07-06T01:26:50;96812.22;;;16.26;100.00
2397;BME280;1209;48.410;9.054;2022-07-06T01:29:16;96807.34;;;16.16;100.00
2397;BME280;1209;48.410;9.054;2022-07-06T01:31:49;96809.56;;;16.19;100.00
2397;BME280;1209;48.410;9.054;2022-07-06T01:34:16;96807.56;;;16.21;100.00
2397;BME280;1209;48.410;9.054;2022-07-06T01:36:43;96803.50;;;16.25;100.00
2397;BME280;1209;48.410;9.054;2022-07-06T01:39:10;96801.13;;;16.37;100.00
2397;BME280;1209;48.410;9.054;2022-07-06T01:41:37;96805.81;;;16.42;100.00
2397;BME280;1209;48.410;9.054;2022-07-06T01:44:04;96804.97;;;16.34;100.00
2397;BME280;1209;48.410;9.054;2022-07-06T01:46:30;96800.41;;;16.09;100.00
2397;BME280;1209;48.410;9.054;2022-07-06T01:48:56;96802.25;;;16.15;100.00
2397;BME280;1209;48.410;9.054;2022-07-06T01:51:21;96808.53;;;16.14;100.00
2397;BME280;1209;48.410;9.054;2022-07-06T01:53:47;96812.19;;;16.13;100.00
2397;BME280;1209;48.410;9.054;2022-07-06T01:56:13;96812.44;;;15.90;100.00
2397;BME280;1209;48.410;9.054;2022-07-06T01:58:38;96805.72;;;15.81;100.00
2397;BME280;1209;48.410;9.054;2022-07-06T02:01:09;96808.44;;;16.00;100.00
2397;BME280;1209;48.410;9.054;2022-07-06T02:03:35;96807.22;;;15.96;100.00
2397;BME280;1209;48.410;9.054;2022-07-06T02:06:01;96805.63;;;16.02;100.00
2397;BME280;1209;48.410;9.054;2022-07-06T02:08:26;96812.50;;;16.03;100.00
2397;BME280;1209;48.410;9.054;2022-07-06T02:10:52;96812.91;;;16.00;100.00
2397;BME280;1209;48.410;9.054;2022-07-06T02:13:17;96810.38;;;16.20;100.00
2397;BME280;1209;48.410;9.054;2022-07-06T02:15:42;96807.72;;;16.13;100.00
2397;BME280;1209;48.410;9.054;2022-07-06T02:18:08;96814.03;;;16.19;100.00
2397;BME280;1209;48.410;9.054;2022-07-06T02:20:33;96813.91;;;15.99;100.00
2397;BME280;1209;48.410;9.054;2022-07-06T02:22:59;96817.84;;;16.10;100.00
2397;BME280;1209;48.410;9.054;2022-07-06T02:25:25;96818.22;;;16.06;100.00
2397;BME280;1209;48.410;9.054;2022-07-06T02:27:50;96813.09;;;15.98;100.00
2397;BME280;1209;48.410;9.054;2022-07-06T02:30:16;96813.94;;;15.64;100.00
2397;BME280;1209;48.410;9.054;2022-07-06T02:32:42;96822.44;;;15.66;100.00
2397;BME280;1209;48.410;9.054;2022-07-06T02:35:08;96825.06;;;15.66;100.00
2397;BME280;1209;48.410;9.054;2022-07-06T02:37:33;96824.13;;;15.74;100.00
2397;BME280;1209;48.410;9.054;2022-07-06T02:39:58;96821.28;;;15.54;100.00
2397;BME280;1209;48.410;9.054;2022-07-06T02:42:24;96819.84;;;15.02;100.00
2397;BME280;1209;48.410;9.054;2022-07-06T02:44:54;96822.75;;;14.86;100.00
2397;BME280;1209;48.410;9.054;2022-07-06T02:47:19;96825.78;;;15.11;100.00
2397;BME280;1209;48.410;9.054;2022-07-06T02:49:45;96824.59;;;15.35;100.00
2397;BME280;1209;48.410;9.054;2022-07-06T02:52:10;96824.84;;;15.40;100.00
2397;BME280;1209;48.410;9.054;2022-07-06T02:54:35;96826.50;;;15.48;100.00
2397;BME280;1209;48.410;9.054;2022-07-06T02:57:01;96829.81;;;15.56;100.00
2397;BME280;1209;48.410;9.054;2022-07-06T02:59:26;96822.59;;;15.37;100.00
2397;BME280;1209;48.410;9.054;2022-07-06T03:01:52;96836.84;;;15.49;100.00
2397;BME280;1209;48.410;9.054;2022-07-06T03:04:17;96833.84;;;15.52;100.00
2397;BME280;1209;48.410;9.054;2022-07-06T03:06:42;96842.84;;;15.36;100.00
2397;BME280;1209;48.410;9.054;2022-07-06T03:09:09;96842.44;;;15.39;100.00
2397;BME280;1209;48.410;9.054;2022-07-06T03:11:34;96844.25;;;15.39;100.00
2397;BME280;1209;48.410;9.054;2022-07-06T03:14:03;96840.06;;;15.44;100.00
2397;BME280;1209;48.410;9.054;2022-07-06T03:16:28;96847.28;;;15.36;100.00
2397;BME280;1209;48.410;9.054;2022-07-06T03:18:55;96853.69;;;15.27;100.00
2397;BME280;1209;48.410;9.054;2022-07-06T03:21:20;96846.34;;;15.01;100.00
2397;BME280;1209;48.410;9.054;2022-07-06T03:23:45;96850.75;;;15.15;100.00
2397;BME280;1209;48.410;9.054;2022-07-06T03:26:11;96841.72;;;15.24;100.00
2397;BME280;1209;48.410;9.054;2022-07-06T03:28:36;96845.94;;;15.19;100.00
2397;BME280;1209;48.410;9.054;2022-07-06T03:31:02;96843.97;;;15.27;100.00
2397;BME280;1209;48.410;9.054;2022-07-06T03:33:29;96848.56;;;15.19;100.00
2397;BME280;1209;48.410;9.054;2022-07-06T03:35:54;96848.38;;;15.20;100.00
2397;BME280;1209;48.410;9.054;2022-07-06T03:38:19;96842.59;;;15.10;100.00
2397;BME280;1209;48.410;9.054;2022-07-06T03:40:45;96844.50;;;15.16;100.00
2397;BME280;1209;48.410;9.054;2022-07-06T03:43:10;96847.13;;;15.16;100.00
2397;BME280;1209;48.410;9.054;2022-07-06T03:45:35;96853.28;;;14.87;100.00
2397;BME280;1209;48.410;9.054;2022-07-06T03:48:01;96853.63;;;15.20;100.00
2397;BME280;1209;48.410;9.054;2022-07-06T03:50:26;96858.69;;;15.22;100.00
2397;BME280;1209;48.410;9.054;2022-07-06T03:52:52;96854.00;;;15.17;100.00
2397;BME280;1209;48.410;9.054;2022-07-06T03:55:17;96860.91;;;15.18;100.00
2397;BME280;1209;48.410;9.054;2022-07-06T03:57:42;96853.09;;;15.10;100.00
2397;BME280;1209;48.410;9.054;2022-07-06T04:00:08;96856.44;;;15.19;100.00
2397;BME280;1209;48.410;9.054;2022-07-06T04:02:34;96850.56;;;15.17;100.00
2397;BME280;1209;48.410;9.054;2022-07-06T04:05:00;96859.44;;;14.94;100.00
2397;BME280;1209;48.410;9.054;2022-07-06T04:07:25;96856.56;;;15.10;100.00
2397;BME280;1209;48.410;9.054;2022-07-06T04:09:51;96858.84;;;15.14;100.00
2397;BME280;1209;48.410;9.054;2022-07-06T04:12:18;96858.56;;;15.08;100.00
2397;BME280;1209;48.410;9.054;2022-07-06T04:14:43;96862.25;;;14.93;100.00
2397;BME280;1209;48.410;9.054;2022-07-06T04:17:09;96863.38;;;15.05;100.00
2397;BME280;1209;48.410;9.054;2022-07-06T04:20:00;96856.56;;;15.10;100.00
2397;BME280;1209;48.410;9.054;2022-07-06T04:22:27;96861.88;;;14.74;100.00
2397;BME280;1209;48.410;9.054;2022-07-06T04:24:52;96862.25;;;14.42;100.00
2397;BME280;1209;48.410;9.054;2022-07-06T04:27:17;96860.34;;;14.51;100.00
2397;BME280;1209;48.410;9.054;2022-07-06T04:29:43;96855.00;;;14.59;100.00
2397;BME280;1209;48.410;9.054;2022-07-06T04:32:08;96860.09;;;14.45;100.00
2397;BME280;1209;48.410;9.054;2022-07-06T04:34:34;96853.16;;;14.74;100.00
2397;BME280;1209;48.410;9.054;2022-07-06T04:36:59;96859.06;;;14.97;100.00
2397;BME280;1209;48.410;9.054;2022-07-06T04:39:24;96859.31;;;15.02;100.00
2397;BME280;1209;48.410;9.054;2022-07-06T04:41:50;96868.78;;;15.18;100.00
2397;BME280;1209;48.410;9.054;2022-07-06T04:44:15;96872.97;;;15.12;100.00
2397;BME280;1209;48.410;9.054;2022-07-06T04:46:40;96870.47;;;15.26;100.00
2397;BME280;1209;48.410;9.054;2022-07-06T04:49:06;96868.72;;;15.33;100.00
2397;BME280;1209;48.410;9.054;2022-07-06T04:51:32;96864.97;;;15.21;100.00
2397;BME280;1209;48.410;9.054;2022-07-06T04:53:57;96863.75;;;15.44;100.00
2397;BME280;1209;48.410;9.054;2022-07-06T04:56:23;96870.50;;;15.54;100.00
2397;BME280;1209;48.410;9.054;2022-07-06T04:58:48;96867.06;;;15.53;100.00
2397;BME280;1209;48.410;9.054;2022-07-06T05:01:13;96866.78;;;15.63;100.00
2397;BME280;1209;48.410;9.054;2022-07-06T05:03:39;96868.22;;;15.65;100.00
2397;BME280;1209;48.410;9.054;2022-07-06T05:06:06;96868.59;;;15.62;100.00
2397;BME280;1209;48.410;9.054;2022-07-06T05:08:32;96870.09;;;15.71;100.00
2397;BME280;1209;48.410;9.054;2022-07-06T05:10:58;96867.72;;;15.83;100.00
2397;BME280;1209;48.410;9.054;2022-07-06T05:13:23;96876.28;;;15.92;100.00
2397;BME280;1209;48.410;9.054;2022-07-06T05:15:49;96876.09;;;15.93;100.00
2397;BME280;1209;48.410;9.054;2022-07-06T05:18:14;96884.03;;;16.00;100.00
2397;BME280;1209;48.410;9.054;2022-07-06T05:20:40;96875.13;;;16.01;100.00
2397;BME280;1209;48.410;9.054;2022-07-06T05:23:05;96885.34;;;16.11;100.00
2397;BME280;1209;48.410;9.054;2022-07-06T05:25:30;96881.53;;;16.20;100.00
2397;BME280;1209;48.410;9.054;2022-07-06T05:27:58;96887.44;;;16.22;100.00
2397;BME280;1209;48.410;9.054;2022-07-06T05:30:23;96892.13;;;16.26;100.00
2397;BME280;1209;48.410;9.054;2022-07-06T05:32:49;96884.63;;;16.30;100.00
2397;BME280;1209;48.410;9.054;2022-07-06T05:35:14;96894.03;;;16.46;100.00
2397;BME280;1209;48.410;9.054;2022-07-06T05:37:40;96883.72;;;16.51;100.00
2397;BME280;1209;48.410;9.054;2022-07-06T05:40:05;96890.19;;;16.48;100.00
2397;BME280;1209;48.410;9.054;2022-07-06T05:42:31;96893.63;;;16.49;100.00
2397;BME280;1209;48.410;9.054;2022-07-06T05:44:56;96893.66;;;16.55;100.00
2397;BME280;1209;48.410;9.054;2022-07-06T05:47:22;96888.31;;;16.70;100.00
2397;BME280;1209;48.410;9.054;2022-07-06T05:50:07;96886.13;;;16.87;100.00
2397;BME280;1209;48.410;9.054;2022-07-06T05:52:41;96890.41;;;17.01;100.00
2397;BME280;1209;48.410;9.054;2022-07-06T05:55:11;96895.75;;;17.14;100.00
2397;BME280;1209;48.410;9.054;2022-07-06T05:57:38;96881.53;;;17.22;100.00
2397;BME280;1209;48.410;9.054;2022-07-06T06:00:07;96894.75;;;17.35;100.00
2397;BME280;1209;48.410;9.054;2022-07-06T06:02:40;96886.44;;;17.31;100.00
2397;BME280;1209;48.410;9.054;2022-07-06T06:05:08;96893.97;;;17.54;100.00
2397;BME280;1209;48.410;9.054;2022-07-06T06:07:35;96898.22;;;17.49;100.00
2397;BME280;1209;48.410;9.054;2022-07-06T06:10:09;96898.06;;;17.70;100.00
2397;BME280;1209;48.410;9.054;2022-07-06T06:12:35;96903.75;;;17.80;100.00
2397;BME280;1209;48.410;9.054;2022-07-06T06:15:00;96898.84;;;17.97;100.00
2397;BME280;1209;48.410;9.054;2022-07-06T06:17:27;96901.13;;;18.00;100.00
2397;BME280;1209;48.410;9.054;2022-07-06T06:19:52;96902.31;;;18.04;100.00
2397;BME280;1209;48.410;9.054;2022-07-06T06:22:18;96905.53;;;18.26;100.00
2397;BME280;1209;48.410;9.054;2022-07-06T06:24:43;96904.06;;;18.37;100.00
2397;BME280;1209;48.410;9.054;2022-07-06T06:27:09;96908.59;;;18.23;100.00
2397;BME280;1209;48.410;9.054;2022-07-06T06:29:34;96907.72;;;18.55;100.00
2397;BME280;1209;48.410;9.054;2022-07-06T06:32:00;96911.19;;;18.43;100.00
2397;BME280;1209;48.410;9.054;2022-07-06T06:34:26;96907.09;;;18.67;100.00
2397;BME280;1209;48.410;9.054;2022-07-06T06:36:52;96912.47;;;18.98;100.00
2397;BME280;1209;48.410;9.054;2022-07-06T06:39:17;96906.88;;;19.13;100.00
2397;BME280;1209;48.410;9.054;2022-07-06T06:41:43;96904.72;;;18.90;100.00
2397;BME280;1209;48.410;9.054;2022-07-06T06:44:09;96902.69;;;19.30;100.00
2397;BME280;1209;48.410;9.054;2022-07-06T06:46:34;96907.34;;;19.03;100.00
2397;BME280;1209;48.410;9.054;2022-07-06T06:48:59;96903.03;;;19.09;100.00
2397;BME280;1209;48.410;9.054;2022-07-06T06:51:25;96901.31;;;19.21;100.00
2397;BME280;1209;48.410;9.054;2022-07-06T06:53:50;96903.28;;;19.32;100.00
2397;BME280;1209;48.410;9.054;2022-07-06T06:56:15;96900.34;;;19.54;100.00
2397;BME280;1209;48.410;9.054;2022-07-06T06:58:41;96902.34;;;19.52;100.00
2397;BME280;1209;48.410;9.054;2022-07-06T07:01:07;96904.59;;;19.55;100.00
2397;BME280;1209;48.410;9.054;2022-07-06T07:03:32;96897.25;;;19.57;100.00
2397;BME280;1209;48.410;9.054;2022-07-06T07:05:58;96896.59;;;19.86;100.00
2397;BME280;1209;48.410;9.054;2022-07-06T07:08:24;96897.09;;;19.76;99.13
2397;BME280;1209;48.410;9.054;2022-07-06T07:10:49;96896.78;;;19.66;100.00
2397;BME280;1209;48.410;9.054;2022-07-06T07:13:15;96892.88;;;19.69;100.00
2397;BME280;1209;48.410;9.054;2022-07-06T07:15:40;96901.66;;;19.94;100.00
2397;BME280;1209;48.410;9.054;2022-07-06T07:18:05;96895.78;;;20.10;100.00
2397;BME280;1209;48.410;9.054;2022-07-06T07:20:31;96895.41;;;20.07;100.00
2397;BME280;1209;48.410;9.054;2022-07-06T07:22:58;96895.84;;;19.79;99.15
2397;BME280;1209;48.410;9.054;2022-07-06T07:25:25;96896.78;;;19.66;100.00
2397;BME280;1209;48.410;9.054;2022-07-06T07:27:51;96897.69;;;19.78;97.61
2397;BME280;1209;48.410;9.054;2022-07-06T07:30:16;96897.25;;;20.25;100.00
2397;BME280;1209;48.410;9.054;2022-07-06T07:32:42;96896.22;;;20.26;98.48
2397;BME280;1209;48.410;9.054;2022-07-06T07:35:08;96895.13;;;20.40;93.12
2397;BME280;1209;48.410;9.054;2022-07-06T07:37:34;96896.41;;;20.86;95.42
2397;BME280;1209;48.410;9.054;2022-07-06T07:39:59;96898.34;;;20.42;97.14
2397;BME280;1209;48.410;9.054;2022-07-06T07:42:25;96899.53;;;20.46;96.25
2397;BME280;1209;48.410;9.054;2022-07-06T07:44:50;96903.00;;;20.83;94.17
2397;BME280;1209;48.410;9.054;2022-07-06T07:47:16;96893.13;;;20.54;95.75
2397;BME280;1209;48.410;9.054;2022-07-06T07:49:41;96896.72;;;20.59;95.44
2397;BME280;1209;48.410;9.054;2022-07-06T07:52:07;96894.28;;;20.58;94.51
2397;BME280;1209;48.410;9.054;2022-07-06T07:54:32;96903.50;;;20.92;96.75
2397;BME280;1209;48.410;9.054;2022-07-06T07:56:58;96892.94;;;21.33;91.42
2397;BME280;1209;48.410;9.054;2022-07-06T07:59:23;96900.00;;;21.21;94.73
2397;BME280;1209;48.410;9.054;2022-07-06T08:01:49;96892.66;;;21.23;99.98
2397;BME280;1209;48.410;9.054;2022-07-06T08:04:14;96888.94;;;21.43;93.51
2397;BME280;1209;48.410;9.054;2022-07-06T08:06:39;96884.09;;;21.63;89.91
2397;BME280;1209;48.410;9.054;2022-07-06T08:09:05;96890.22;;;21.52;97.09
2397;BME280;1209;48.410;9.054;2022-07-06T08:11:35;96894.22;;;21.84;91.19
2397;BME280;1209;48.410;9.054;2022-07-06T08:14:02;96885.59;;;21.59;91.22
2397;BME280;1209;48.410;9.054;2022-07-06T08:16:27;96888.25;;;21.59;87.93
2397;BME280;1209;48.410;9.054;2022-07-06T08:18:53;96892.69;;;22.00;89.81
2397;BME280;1209;48.410;9.054;2022-07-06T08:21:18;96887.91;;;21.55;91.80
2397;BME280;1209;48.410;9.054;2022-07-06T08:23:44;96886.34;;;21.89;87.03
2397;BME280;1209;48.410;9.054;2022-07-06T08:26:09;96883.94;;;22.11;87.03
2397;BME280;1209;48.410;9.054;2022-07-06T08:28:34;96888.00;;;22.25;88.37
2397;BME280;1209;48.410;9.054;2022-07-06T08:31:00;96891.22;;;22.04;87.67
2397;BME280;1209;48.410;9.054;2022-07-06T08:33:25;96895.84;;;22.32;86.74
2397;BME280;1209;48.410;9.054;2022-07-06T08:35:51;96892.44;;;22.60;87.04
2397;BME280;1209;48.410;9.054;2022-07-06T08:38:16;96894.34;;;23.00;85.49
2397;BME280;1209;48.410;9.054;2022-07-06T08:40:43;96891.84;;;22.81;82.73
2397;BME280;1209;48.410;9.054;2022-07-06T08:43:11;96903.31;;;22.82;83.95
2397;BME280;1209;48.410;9.054;2022-07-06T08:45:37;96897.75;;;22.72;82.02
2397;BME280;1209;48.410;9.054;2022-07-06T08:48:07;96897.06;;;22.76;85.44
2397;BME280;1209;48.410;9.054;2022-07-06T08:50:34;96904.31;;;22.92;83.15
2397;BME280;1209;48.410;9.054;2022-07-06T08:52:59;96896.75;;;23.01;84.01
2397;BME280;1209;48.410;9.054;2022-07-06T08:55:26;96904.63;;;22.44;85.74
2397;BME280;1209;48.410;9.054;2022-07-06T08:57:54;96901.44;;;23.22;86.68
2397;BME280;1209;48.410;9.054;2022-07-06T09:00:19;96893.13;;;23.19;90.57
2397;BME280;1209;48.410;9.054;2022-07-06T09:02:45;96905.44;;;23.82;82.99
2397;BME280;1209;48.410;9.054;2022-07-06T09:05:14;96902.53;;;23.38;79.40
2397;BME280;1209;48.410;9.054;2022-07-06T09:07:42;96897.44;;;23.82;83.86
2397;BME280;1209;48.410;9.054;2022-07-06T09:10:11;96903.56;;;23.82;80.05
2397;BME280;1209;48.410;9.054;2022-07-06T09:12:36;96897.56;;;24.26;79.70
2397;BME280;1209;48.410;9.054;2022-07-06T09:15:02;96893.44;;;24.35;78.45
2397;BME280;1209;48.410;9.054;2022-07-06T09:17:28;96899.84;;;23.67;81.79
2397;BME280;1209;48.410;9.054;2022-07-06T09:19:54;96899.41;;;24.08;82.60
2397;BME280;1209;48.410;9.054;2022-07-06T09:22:31;96899.94;;;24.61;78.32
2397;BME280;1209;48.410;9.054;2022-07-06T09:25:13;96901.13;;;24.70;75.56
2397;BME280;1209;48.410;9.054;2022-07-06T09:27:44;96901.41;;;24.52;76.37
2397;BME280;1209;48.410;9.054;2022-07-06T09:30:13;96903.47;;;24.88;74.09
2397;BME280;1209;48.410;9.054;2022-07-06T09:32:46;96906.53;;;25.19;72.07
2397;BME280;1209;48.410;9.054;2022-07-06T09:37:46;96905.31;;;25.58;71.00
2397;BME280;1209;48.410;9.054;2022-07-06T09:40:17;96903.72;;;25.57;70.39
2397;BME280;1209;48.410;9.054;2022-07-06T09:42:44;96903.13;;;25.82;72.11
2397;BME280;1209;48.410;9.054;2022-07-06T09:45:09;96914.41;;;25.57;66.97
2397;BME280;1209;48.410;9.054;2022-07-06T09:47:35;96912.41;;;25.69;69.82
2397;BME280;1209;48.410;9.054;2022-07-06T09:50:05;96907.06;;;25.69;71.84
2397;BME280;1209;48.410;9.054;2022-07-06T09:52:33;96909.78;;;25.53;69.64
2397;BME280;1209;48.410;9.054;2022-07-06T09:54:59;96912.41;;;25.69;67.27
2397;BME280;1209;48.410;9.054;2022-07-06T09:57:24;96909.25;;;25.78;65.96
2397;BME280;1209;48.410;9.054;2022-07-06T09:59:50;96917.59;;;25.81;61.99
2397;BME280;1209;48.410;9.054;2022-07-06T10:02:16;96912.56;;;25.90;64.60
2397;BME280;1209;48.410;9.054;2022-07-06T10:04:44;96911.94;;;25.24;63.25
2397;BME280;1209;48.410;9.054;2022-07-06T10:07:10;96916.09;;;24.93;62.68
2397;BME280;1209;48.410;9.054;2022-07-06T10:09:37;96915.75;;;25.33;63.35
2397;BME280;1209;48.410;9.054;2022-07-06T10:12:03;96909.00;;;25.25;62.46
2397;BME280;1209;48.410;9.054;2022-07-06T10:14:32;96909.91;;;25.36;65.22
2397;BME280;1209;48.410;9.054;2022-07-06T10:16:59;96908.94;;;25.20;65.55
2397;BME280;1209;48.410;9.054;2022-07-06T10:19:26;96903.34;;;24.78;65.52
2397;BME280;1209;48.410;9.054;2022-07-06T10:21:52;96909.00;;;24.82;65.79
2397;BME280;1209;48.410;9.054;2022-07-06T10:24:21;96901.28;;;24.25;65.54
2397;BME280;1209;48.410;9.054;2022-07-06T10:26:47;96915.47;;;23.75;68.96
2397;BME280;1209;48.410;9.054;2022-07-06T10:29:13;96908.81;;;24.66;70.14
2397;BME280;1209;48.410;9.054;2022-07-06T10:31:44;96911.81;;;25.40;66.79
2397;BME280;1209;48.410;9.054;2022-07-06T10:34:12;96912.84;;;25.34;63.70
2397;BME280;1209;48.410;9.054;2022-07-06T10:36:42;96915.97;;;25.04;65.11
2397;BME280;1209;48.410;9.054;2022-07-06T10:39:10;96910.94;;;24.86;65.18
2397;BME280;1209;48.410;9.054;2022-07-06T10:41:55;96903.50;;;24.49;67.24
2397;BME280;1209;48.410;9.054;2022-07-06T10:44:24;96916.91;;;23.99;70.81
2397;BME280;1209;48.410;9.054;2022-07-06T10:46:51;96910.38;;;23.73;72.11
2397;BME280;1209;48.410;9.054;2022-07-06T10:49:17;96909.69;;;24.00;67.17
2397;BME280;1209;48.410;9.054;2022-07-06T10:51:44;96908.38;;;24.74;66.15
2397;BME280;1209;48.410;9.054;2022-07-06T10:54:09;96894.81;;;25.79;70.53
2397;BME280;1209;48.410;9.054;2022-07-06T10:56:51;96901.03;;;26.69;66.20
2397;BME280;1209;48.410;9.054;2022-07-06T10:59:23;96898.88;;;27.33;70.82
2397;BME280;1209;48.410;9.054;2022-07-06T11:02:17;96899.75;;;28.15;57.83
2397;BME280;1209;48.410;9.054;2022-07-06T11:04:46;96895.41;;;28.49;54.30
2397;BME280;1209;48.410;9.054;2022-07-06T11:07:14;96901.63;;;28.14;53.31
2397;BME280;1209;48.410;9.054;2022-07-06T11:09:41;96896.00;;;28.01;55.60
2397;BME280;1209;48.410;9.054;2022-07-06T11:12:20;96886.25;;;27.23;60.91
2397;BME280;1209;48.410;9.054;2022-07-06T11:14:50;96888.75;;;26.78;56.75
2397;BME280;1209;48.410;9.054;2022-07-06T11:17:16;96889.84;;;25.97;60.82
2397;BME280;1209;48.410;9.054;2022-07-06T11:20:11;96882.75;;;25.76;60.94
2397;BME280;1209;48.410;9.054;2022-07-06T11:22:38;96888.38;;;25.21;60.48
2397;BME280;1209;48.410;9.054;2022-07-06T11:25:05;96889.72;;;25.23;61.21
2397;BME280;1209;48.410;9.054;2022-07-06T11:27:34;96881.25;;;25.31;60.94
2397;BME280;1209;48.410;9.054;2022-07-06T11:29:59;96873.22;;;25.04;62.19
2397;BME280;1209;48.410;9.054;2022-07-06T11:32:26;96872.22;;;24.89;66.93
2397;BME280;1209;48.410;9.054;2022-07-06T11:34:52;96873.88;;;25.17;64.19
2397;BME280;1209;48.410;9.054;2022-07-06T11:37:18;96873.47;;;26.31;60.76
2397;BME280;1209;48.410;9.054;2022-07-06T11:39:45;96874.00;;;26.80;57.88
2397;BME280;1209;48.410;9.054;2022-07-06T11:42:16;96870.91;;;27.04;56.57
2397;BME280;1209;48.410;9.054;2022-07-06T11:44:45;96860.63;;;25.91;57.04
2397;BME280;1209;48.410;9.054;2022-07-06T11:47:11;96864.66;;;26.93;62.77
2397;BME280;1209;48.410;9.054;2022-07-06T11:49:38;96861.03;;;27.29;55.97
2397;BME280;1209;48.410;9.054;2022-07-06T11:52:08;96861.34;;;28.09;62.18
2397;BME280;1209;48.410;9.054;2022-07-06T11:54:34;96865.09;;;28.08;54.98
2397;BME280;1209;48.410;9.054;2022-07-06T11:57:00;96857.00;;;28.34;51.92
2397;BME280;1209;48.410;9.054;2022-07-06T11:59:26;96855.16;;;28.14;53.83
2397;BME280;1209;48.410;9.054;2022-07-06T12:04:31;96841.22;;;27.97;52.63
2397;BME280;1209;48.410;9.054;2022-07-06T12:07:02;96841.38;;;28.51;53.25
2397;BME280;1209;48.410;9.054;2022-07-06T12:09:32;96845.78;;;27.76;55.91
2397;BME280;1209;48.410;9.054;2022-07-06T12:11:57;96843.09;;;28.06;56.12
2397;BME280;1209;48.410;9.054;2022-07-06T12:14:22;96840.94;;;27.98;52.77
2397;BME280;1209;48.410;9.054;2022-07-06T12:16:49;96843.09;;;27.86;54.33
2397;BME280;1209;48.410;9.054;2022-07-06T12:19:15;96839.56;;;27.40;55.86
2397;BME280;1209;48.410;9.054;2022-07-06T12:21:45;96838.00;;;27.69;56.25
2397;BME280;1209;48.410;9.054;2022-07-06T12:24:17;96830.47;;;27.81;59.31
2397;BME280;1209;48.410;9.054;2022-07-06T12:26:43;96832.88;;;27.88;54.89
2397;BME280;1209;48.410;9.054;2022-07-06T12:29:10;96829.94;;;27.54;55.26
2397;BME280;1209;48.410;9.054;2022-07-06T12:31:56;96831.16;;;26.95;60.32
2397;BME280;1209;48.410;9.054;2022-07-06T12:34:23;96836.13;;;27.49;59.25
2397;BME280;1209;48.410;9.054;2022-07-06T12:36:57;96835.53;;;27.32;58.73
2397;BME280;1209;48.410;9.054;2022-07-06T12:39:24;96841.25;;;27.66;58.41
2397;BME280;1209;48.410;9.054;2022-07-06T12:41:53;96837.69;;;28.27;54.75
2397;BME280;1209;48.410;9.054;2022-07-06T12:44:23;96831.47;;;28.36;53.28
2397;BME280;1209;48.410;9.054;2022-07-06T12:47:09;96825.91;;;28.92;53.15
2397;BME280;1209;48.410;9.054;2022-07-06T12:49:37;96827.50;;;28.93;52.60
2397;BME280;1209;48.410;9.054;2022-07-06T12:57:16;96831.72;;;28.45;54.70
2397;BME280;1209;48.410;9.054;2022-07-06T12:59:46;96837.44;;;27.32;58.83
2397;BME280;1209;48.410;9.054;2022-07-06T13:04:59;96837.50;;;26.12;62.06
2397;BME280;1209;48.410;9.054;2022-07-06T13:07:25;96837.28;;;25.81;64.03
2397;BME280;1209;48.410;9.054;2022-07-06T13:09:52;96833.47;;;26.09;62.35
2397;BME280;1209;48.410;9.054;2022-07-06T13:12:19;96835.47;;;25.55;67.39
2397;BME280;1209;48.410;9.054;2022-07-06T13:14:45;96827.72;;;24.99;67.96
2397;BME280;1209;48.410;9.054;2022-07-06T13:17:10;96828.16;;;25.77;68.21
2397;BME280;1209;48.410;9.054;2022-07-06T13:19:36;96840.16;;;26.54;65.15
2397;BME280;1209;48.410;9.054;2022-07-06T13:22:01;96844.66;;;27.26;64.42
2397;BME280;1209;48.410;9.054;2022-07-06T13:24:27;96840.69;;;27.79;59.53
2397;BME280;1209;48.410;9.054;2022-07-06T13:26:54;96835.53;;;28.29;59.02